Time;durP1;ratioP1;P1;durP2;ratioP2;P2;SDS_P1;SDS_P2;PMS_P1;PMS_P2;Temp;Humidity;BMP_temperature;BMP_pressure;BME280_temperature;BME280_humidity;BME280_pressure;Samples;Min_cycle;Max_cycle;Signal;HPM_P1;HPM_P2
2022/03/08 00:00:30;;;;;;;44.22;18.90;;;;;;;0.94;64.88;98988.56;5093347;28;20044;-93
2022/03/08 00:02:57;;;;;;;40.78;16.88;;;;;;;1.13;64.69;99023.75;5092556;28;20059;-94
2022/03/08 00:05:24;;;;;;;42.25;17.17;;;;;;;1.15;63.99;99002.00;5092055;28;20407;-93
2022/03/08 00:07:50;;;;;;;44.17;16.83;;;;;;;1.10;64.00;98994.91;5092245;28;20135;-94
2022/03/08 00:10:17;;;;;;;42.75;16.52;;;;;;;1.14;64.28;99007.19;5092999;28;20394;-94
2022/03/08 00:12:43;;;;;;;45.00;19.55;;;;;;;0.94;64.67;98986.84;5092062;28;20055;-94
2022/03/08 00:15:11;;;;;;;42.83;18.42;;;;;;;0.93;64.47;98992.94;5092785;28;20044;-94
2022/03/08 00:17:38;;;;;;;42.60;18.88;;;;;;;0.91;65.05;99012.06;5092584;28;20041;-95
2022/03/08 00:20:06;;;;;;;41.92;18.73;;;;;;;0.82;65.08;99005.88;5080822;28;20171;-93
2022/03/08 00:22:33;;;;;;;45.03;16.95;;;;;;;0.93;65.21;99026.06;5079085;28;20067;-95
2022/03/08 00:25:01;;;;;;;50.72;21.40;;;;;;;0.74;65.53;98988.28;5078809;28;20127;-94
2022/03/08 00:27:27;;;;;;;37.65;16.65;;;;;;;0.71;66.19;99010.03;5077845;28;20039;-94
2022/03/08 00:29:53;;;;;;;42.45;15.70;;;;;;;0.64;65.96;99002.94;5078014;28;20056;-94
2022/03/08 00:32:19;;;;;;;44.38;15.90;;;;;;;0.68;66.84;99025.69;5077695;28;20448;-95
2022/03/08 00:34:46;;;;;;;44.38;16.92;;;;;;;0.38;68.33;99005.13;5077316;28;20045;-95
2022/03/08 00:37:12;;;;;;;46.10;16.65;;;;;;;0.33;69.48;99030.34;5077767;28;20095;-93
2022/03/08 00:39:38;;;;;;;39.38;15.65;;;;;;;0.09;70.87;99043.84;5077645;28;20126;-95
2022/03/08 00:42:05;;;;;;;43.17;17.92;;;;;;;-0.11;71.73;99032.97;5078286;28;20044;-95
2022/03/08 00:44:31;;;;;;;46.65;17.50;;;;;;;-0.04;70.75;99024.41;5077133;28;20078;-95
2022/03/08 00:46:57;;;;;;;47.90;18.88;;;;;;;0.06;70.23;99007.16;5076971;28;20486;-93
2022/03/08 00:49:23;;;;;;;43.75;18.27;;;;;;;0.19;70.04;99022.22;5077206;28;20498;-94
2022/03/08 00:51:50;;;;;;;55.30;22.67;;;;;;;0.38;68.86;99020.81;5078424;28;20048;-94
2022/03/08 00:54:16;;;;;;;49.53;19.10;;;;;;;0.42;67.79;99004.31;5078027;28;20052;-95
2022/03/08 00:56:42;;;;;;;48.70;18.70;;;;;;;0.47;67.36;99010.50;5077874;28;20044;-95
2022/03/08 00:59:08;;;;;;;50.97;18.77;;;;;;;0.55;67.18;98998.44;5078867;28;20045;-95
2022/03/08 01:01:34;;;;;;;44.45;16.90;;;;;;;0.66;66.52;98997.75;5077452;28;20048;-96
2022/03/08 01:04:00;;;;;;;42.20;18.42;;;;;;;0.72;66.90;99022.28;5076939;28;20048;-94
2022/03/08 01:06:25;;;;;;;45.67;17.63;;;;;;;0.45;68.53;98996.50;5077047;28;20053;-94
2022/03/08 01:08:53;;;;;;;52.72;17.40;;;;;;;0.46;68.19;99010.50;5076939;28;20537;-94
2022/03/08 01:11:19;;;;;;;45.17;18.63;;;;;;;0.68;66.32;99003.88;5076757;28;20049;-94
2022/03/08 01:13:44;;;;;;;46.33;19.27;;;;;;;0.72;66.40;99009.19;5077226;28;20440;-94
2022/03/08 01:16:10;;;;;;;48.47;17.38;;;;;;;0.84;66.03;99023.31;5076771;28;20044;-94
2022/03/08 01:18:36;;;;;;;45.55;16.85;;;;;;;0.66;66.09;98995.13;5079640;28;20406;-95
2022/03/08 01:21:02;;;;;;;48.88;17.33;;;;;;;0.71;65.06;98999.56;5078554;28;20135;-94
2022/03/08 01:23:28;;;;;;;43.67;19.27;;;;;;;0.90;64.91;99013.81;5080256;28;20052;-94
2022/03/08 01:25:56;;;;;;;44.10;17.13;;;;;;;0.84;63.80;98984.91;5079388;28;20048;-94
2022/03/08 01:28:21;;;;;;;44.35;17.95;;;;;;;1.01;63.13;99016.59;5079207;28;20551;-94
2022/03/08 01:30:48;;;;;;;44.78;18.55;;;;;;;1.01;63.22;99014.84;5077812;28;20048;-94
2022/03/08 01:33:14;;;;;;;46.53;17.00;;;;;;;0.89;63.20;99004.22;5081599;28;20040;-95
2022/03/08 01:35:40;;;;;;;45.08;17.33;;;;;;;0.98;62.25;99011.34;5078187;28;20379;-95
2022/03/08 01:38:05;;;;;;;41.72;16.42;;;;;;;0.87;62.85;99005.03;5080596;28;20128;-94
2022/03/08 01:40:31;;;;;;;45.42;17.98;;;;;;;0.77;63.27;98991.81;5077804;28;20074;-94
2022/03/08 01:43:01;;;;;;;46.28;17.20;;;;;;;0.73;63.23;98982.13;5079938;28;20052;-94
2022/03/08 01:45:27;;;;;;;;;;;;;;;0.91;63.23;99026.06;5079939;28;20037;-95
2022/03/08 01:47:53;;;;;;;47.22;17.35;;;;;;;0.85;62.25;99002.41;5078574;28;19978;-94
2022/03/08 01:50:20;;;;;;;42.80;16.83;;;;;;;1.05;58.95;98997.47;5079911;28;20052;-93
2022/03/08 01:52:46;;;;;;;43.90;17.05;;;;;;;1.19;58.33;99001.19;5078096;28;20066;-94
2022/03/08 01:55:14;;;;;;;40.92;14.98;;;;;;;1.30;57.10;98980.38;5080340;28;20470;-93
2022/03/08 01:57:41;;;;;;;39.20;14.57;;;;;;;1.39;56.55;98987.47;5076956;28;20094;-95
2022/03/08 02:00:12;;;;;;;33.03;14.32;;;;;;;1.41;56.85;99004.06;5079160;28;20060;-95
2022/03/08 02:02:39;;;;;;;33.92;12.60;;;;;;;1.50;56.35;99003.34;5078293;28;20047;-95
2022/03/08 02:05:05;;;;;;;33.35;13.05;;;;;;;1.62;55.99;99024.44;5078506;28;20063;-94
2022/03/08 02:07:31;;;;;;;35.40;14.52;;;;;;;1.30;56.87;98988.22;5081117;28;20040;-95
2022/03/08 02:09:58;;;;;;;37.78;14.63;;;;;;;1.33;57.34;99017.06;5079600;28;20044;-95
2022/03/08 02:12:24;;;;;;;41.08;16.63;;;;;;;1.19;57.38;99006.41;5078018;28;20063;-94
2022/03/08 02:14:50;;;;;;;36.00;14.35;;;;;;;1.14;57.57;99009.81;5078148;28;20040;-95
2022/03/08 02:17:18;;;;;;;39.90;14.32;;;;;;;1.16;57.43;99023.81;5077788;28;20044;-95
2022/03/08 02:19:43;;;;;;;39.42;14.75;;;;;;;1.03;57.78;99007.91;5076837;28;20051;-95
2022/03/08 02:22:11;;;;;;;35.83;14.85;;;;;;;1.09;57.99;99021.97;5076586;28;20048;-93
2022/03/08 02:24:37;;;;;;;31.48;13.50;;;;;;;1.01;58.01;99014.00;5075968;28;20436;-94
2022/03/08 02:27:03;;;;;;;33.25;13.65;;;;;;;1.00;58.58;99033.19;5075976;28;20044;-93
2022/03/08 02:29:29;;;;;;;33.10;14.48;;;;;;;0.86;59.01;99026.84;5079414;28;20032;-94
2022/03/08 02:31:55;;;;;;;34.50;12.90;;;;;;;0.81;58.58;99006.72;5077572;28;20040;-95
2022/03/08 02:34:23;;;;;;;38.97;13.20;;;;;;;0.87;58.72;99026.88;5076404;28;20049;-94
2022/03/08 02:36:59;;;;;;;25.95;11.52;;;;;;;0.93;58.60;99047.94;5076939;28;20048;-94
2022/03/08 02:39:27;;;;;;;30.98;13.32;;;;;;;0.79;58.51;99029.34;5078712;28;20067;-96
2022/03/08 02:41:53;;;;;;;33.35;14.02;;;;;;;0.86;57.90;99029.47;5076726;28;20037;-94
2022/03/08 02:44:18;;;;;;;29.05;11.88;;;;;;;0.86;56.76;99012.00;5076156;28;20080;-93
2022/03/08 02:46:44;;;;;;;30.27;13.25;;;;;;;0.87;56.94;99016.41;5077376;28;20115;-94
2022/03/08 02:49:10;;;;;;;32.40;13.02;;;;;;;0.82;56.61;99025.91;5077371;28;20113;-94
2022/03/08 02:51:36;;;;;;;29.67;10.60;;;;;;;1.05;55.89;99048.97;5074864;28;20087;-94
2022/03/08 02:54:02;;;;;;;24.83;10.88;;;;;;;0.99;55.94;99039.25;5076102;28;20105;-94
2022/03/08 02:56:30;;;;;;;27.58;10.82;;;;;;;0.87;56.13;99016.41;5075331;28;20049;-96
2022/03/08 02:58:56;;;;;;;27.33;11.50;;;;;;;0.90;55.64;99024.28;5078762;28;20056;-94
2022/03/08 03:01:22;;;;;;;20.38;9.32;;;;;;;0.94;55.83;99030.47;5075733;28;20048;-94
2022/03/08 03:03:47;;;;;;;27.77;9.75;;;;;;;0.79;57.36;99026.75;5075253;28;20543;-94
2022/03/08 03:06:14;;;;;;;24.60;10.05;;;;;;;0.70;56.33;99031.84;5076983;28;20045;-94
2022/03/08 03:08:40;;;;;;;20.73;9.50;;;;;;;0.71;56.10;99030.97;5077287;28;20097;-95
2022/03/08 03:11:06;;;;;;;26.95;11.02;;;;;;;0.87;55.96;99052.16;5075494;28;20072;-95
2022/03/08 03:13:34;;;;;;;28.83;12.43;;;;;;;0.76;56.51;99034.56;5075543;28;20047;-94
2022/03/08 03:16:00;;;;;;;30.23;13.40;;;;;;;0.76;56.87;99046.75;5076855;28;20071;-96
2022/03/08 03:18:25;;;;;;;25.23;10.05;;;;;;;0.76;57.20;99070.31;5075166;28;20157;-95
2022/03/08 03:20:51;;;;;;;29.42;13.00;;;;;;;0.29;59.76;99039.84;5075461;28;20044;-95
2022/03/08 03:23:17;;;;;;;34.05;13.68;;;;;;;0.30;58.90;99043.34;5076469;28;20045;-94
2022/03/08 03:25:43;;;;;;;31.23;12.88;;;;;;;0.55;58.49;99071.72;5076285;28;20048;-94
2022/03/08 03:28:09;;;;;;;24.00;11.32;;;;;;;0.62;57.79;99077.94;5076075;28;20083;-95
2022/03/08 03:30:36;;;;;;;22.50;10.18;;;;;;;0.43;57.54;99049.66;5075705;28;20052;-95
2022/03/08 03:33:03;;;;;;;29.35;12.27;;;;;;;0.36;58.35;99051.31;5076414;28;20049;-94
2022/03/08 03:35:29;;;;;;;29.25;12.30;;;;;;;0.26;58.67;99044.13;5074992;28;20112;-94
2022/03/08 03:37:55;;;;;;;29.73;11.68;;;;;;;0.37;58.78;99074.00;5075668;28;20051;-95
2022/03/08 03:40:21;;;;;;;34.10;12.70;;;;;;;0.11;59.05;99040.41;5074631;28;20469;-95
2022/03/08 03:42:47;;;;;;;29.05;11.93;;;;;;;0.09;58.68;99046.44;5074582;28;20060;-95
2022/03/08 03:45:13;;;;;;;25.45;11.50;;;;;;;0.19;58.54;99045.75;5074583;28;20051;-95
2022/03/08 03:47:41;;;;;;;25.70;11.05;;;;;;;0.29;58.02;99068.63;5074641;28;20036;-95
2022/03/08 03:50:09;;;;;;;28.42;12.50;;;;;;;-0.02;59.42;99046.25;5074056;28;20052;-94
2022/03/08 03:52:35;;;;;;;23.38;10.23;;;;;;;-0.24;60.04;99030.13;5074552;28;20135;-95
2022/03/08 03:55:01;;;;;;;23.73;11.35;;;;;;;-0.08;59.44;99061.81;5077160;28;20049;-95
2022/03/08 03:57:27;;;;;;;22.17;9.38;;;;;;;-0.09;59.14;99066.13;5078441;28;20090;-95
2022/03/08 03:59:53;;;;;;;22.20;8.95;;;;;;;-0.17;59.11;99025.00;5078328;28;20048;-95
2022/03/08 04:02:19;;;;;;;20.48;9.20;;;;;;;0.07;58.93;99071.69;5078321;28;20052;-96
2022/03/08 04:04:46;;;;;;;22.90;9.18;;;;;;;0.03;58.25;99044.59;5078188;28;20094;-94
2022/03/08 04:07:12;;;;;;;18.30;8.65;;;;;;;-0.03;58.45;99045.34;5078624;28;20066;-94
2022/03/08 04:09:38;;;;;;;19.60;9.65;;;;;;;0.07;57.61;99041.19;5078329;28;20104;-94
2022/03/08 04:12:07;;;;;;;22.63;9.32;;;;;;;0.23;57.93;99062.38;5080021;28;20137;-95
2022/03/08 04:14:33;;;;;;;19.30;8.30;;;;;;;0.03;58.17;99039.34;5080046;28;20045;-95
2022/03/08 04:16:59;;;;;;;19.27;9.55;;;;;;;0.10;58.27;99056.91;5079546;28;20103;-94
2022/03/08 04:19:25;;;;;;;21.63;9.15;;;;;;;-0.03;58.15;99036.63;5079054;28;20505;-95
2022/03/08 04:21:53;;;;;;;25.30;8.85;;;;;;;-0.03;58.48;99049.69;5078587;28;20135;-96
2022/03/08 04:24:19;;;;;;;15.98;8.25;;;;;;;-0.14;59.35;99032.91;5078694;28;20048;-96
2022/03/08 04:26:45;;;;;;;19.25;8.50;;;;;;;-0.11;58.54;99030.34;5079329;28;20048;-95
2022/03/08 04:29:10;;;;;;;16.63;7.65;;;;;;;-0.13;58.54;99038.19;5079184;28;20049;-95
2022/03/08 04:31:36;;;;;;;18.88;8.15;;;;;;;0.12;58.35;99054.34;5080722;28;20139;-95
2022/03/08 04:34:02;;;;;;;16.05;7.45;;;;;;;0.07;58.10;99053.38;5078940;28;20134;-95
2022/03/08 04:36:28;;;;;;;15.75;7.28;;;;;;;0.05;57.96;99045.50;5078986;28;20406;-95
2022/03/08 04:38:55;;;;;;;16.08;7.47;;;;;;;0.07;58.33;99045.53;5078673;28;20041;-95
2022/03/08 04:41:21;;;;;;;16.50;7.97;;;;;;;-0.05;58.87;99026.13;5079184;28;20060;-95
2022/03/08 04:43:47;;;;;;;17.35;7.93;;;;;;;0.03;58.60;99028.03;5080699;28;20041;-94
2022/03/08 04:46:13;;;;;;;15.55;7.40;;;;;;;0.27;57.92;99048.53;5079524;28;20123;-95
2022/03/08 04:48:39;;;;;;;18.00;6.70;;;;;;;0.32;57.85;99050.34;5078733;28;20041;-94
2022/03/08 04:51:05;;;;;;;15.32;6.28;;;;;;;0.27;57.25;99020.63;5079290;28;20116;-92
2022/03/08 04:53:30;;;;;;;17.58;6.43;;;;;;;0.26;57.42;99025.81;5077354;28;20122;-96
2022/03/08 04:55:58;;;;;;;17.92;7.72;;;;;;;0.22;57.93;99031.84;5078982;28;20044;-95
2022/03/08 04:58:24;;;;;;;16.50;7.20;;;;;;;0.37;57.05;99042.63;5079021;28;20417;-94
2022/03/08 05:00:49;;;;;;;16.80;8.32;;;;;;;0.28;56.93;99026.72;5078337;28;20102;-93
2022/03/08 05:03:15;;;;;;;18.92;6.80;;;;;;;0.38;57.03;99028.66;5079378;28;20052;-95
2022/03/08 05:05:41;;;;;;;13.52;6.80;;;;;;;0.37;57.22;99029.53;5077545;28;20110;-93
2022/03/08 05:08:07;;;;;;;12.85;6.85;;;;;;;0.38;56.89;99026.06;5078444;28;20052;-94
2022/03/08 05:10:33;;;;;;;20.02;8.00;;;;;;;0.32;56.56;99010.25;5078318;28;20064;-94
2022/03/08 05:13:01;;;;;;;18.92;7.57;;;;;;;0.38;56.90;99029.53;5077999;28;20098;-94
2022/03/08 05:15:28;;;;;;;14.73;6.65;;;;;;;0.27;56.75;99010.16;5078441;28;20059;-94
2022/03/08 05:17:54;;;;;;;14.15;6.22;;;;;;;0.25;57.82;99024.94;5077438;28;20043;-95
2022/03/08 05:20:19;;;;;;;16.33;7.72;;;;;;;0.26;57.26;99017.97;5078290;28;20401;-94
2022/03/08 05:22:45;;;;;;;12.43;6.13;;;;;;;0.26;57.35;99021.50;5077509;28;20047;-94
2022/03/08 05:25:11;;;;;;;14.65;6.72;;;;;;;0.15;57.53;99012.53;5078340;28;20098;-94
2022/03/08 05:27:37;;;;;;;14.40;6.43;;;;;;;0.26;57.26;99015.34;5078894;28;20044;-95
2022/03/08 05:30:06;;;;;;;13.60;6.68;;;;;;;0.44;57.21;99044.47;5077837;28;20045;-95
2022/03/08 05:32:32;;;;;;;14.60;6.75;;;;;;;0.21;57.37;99015.28;5076984;28;20131;-95
2022/03/08 05:34:58;;;;;;;18.33;6.85;;;;;;;0.25;57.92;99018.84;5078234;28;20071;-95
2022/03/08 05:37:24;;;;;;;14.32;6.97;;;;;;;0.13;57.96;98994.22;5078742;28;20052;-95
2022/03/08 05:39:50;;;;;;;12.02;6.30;;;;;;;0.05;59.54;99016.75;5077704;28;20123;-94
2022/03/08 05:42:16;;;;;;;16.13;6.97;;;;;;;-0.12;59.69;99026.88;5077978;28;20067;-95
2022/03/08 05:44:42;;;;;;;13.75;7.10;;;;;;;-0.22;61.42;99037.97;5078747;28;20049;-94
2022/03/08 05:47:09;;;;;;;12.60;6.53;;;;;;;-0.17;60.77;99045.91;5077191;28;20060;-94
2022/03/08 05:49:35;;;;;;;16.08;6.88;;;;;;;-0.13;59.89;99034.66;5078140;28;20040;-94
2022/03/08 05:52:01;;;;;;;14.50;6.88;;;;;;;-0.08;60.41;99046.13;5077105;28;20052;-94
2022/03/08 05:54:28;;;;;;;16.67;7.18;;;;;;;-0.36;61.98;99024.66;5076615;28;20143;-95
2022/03/08 05:56:54;;;;;;;15.32;6.53;;;;;;;-0.24;60.04;99040.59;5077372;28;20050;-95
2022/03/08 05:59:20;;;;;;;14.02;6.88;;;;;;;-0.32;61.15;99026.47;5077729;28;20044;-94
2022/03/08 06:01:46;;;;;;;17.08;7.43;;;;;;;-0.25;60.39;99023.13;5078882;28;20070;-94
2022/03/08 06:04:13;;;;;;;13.05;6.68;;;;;;;-0.09;59.03;99024.31;5078973;28;20044;-94
2022/03/08 06:06:39;;;;;;;12.95;7.13;;;;;;;0.08;58.37;99026.38;5078040;28;20053;-94
2022/03/08 06:09:05;;;;;;;12.95;7.18;;;;;;;0.27;58.00;99052.00;5077732;28;20043;-95
2022/03/08 06:11:30;;;;;;;15.18;6.63;;;;;;;0.32;58.18;99046.84;5076189;28;20139;-95
2022/03/08 06:13:56;;;;;;;13.70;7.45;;;;;;;0.42;57.41;99040.06;5075664;28;20485;-95
2022/03/08 06:16:22;;;;;;;17.95;7.57;;;;;;;0.61;56.83;99035.19;5076819;28;20048;-96
2022/03/08 06:18:48;;;;;;;17.27;7.47;;;;;;;0.83;56.91;99046.00;5075998;28;20091;-95
2022/03/08 06:21:15;;;;;;;14.80;7.15;;;;;;;0.84;56.47;99020.69;5076134;28;20049;-95
2022/03/08 06:23:41;;;;;;;16.42;7.70;;;;;;;1.01;55.71;99019.22;5076244;28;20382;-96
2022/03/08 06:26:08;;;;;;;14.23;6.50;;;;;;;1.03;55.96;99028.84;5076259;28;20049;-94
2022/03/08 06:28:34;;;;;;;15.10;6.72;;;;;;;1.04;55.85;99024.50;5075013;28;20087;-95
2022/03/08 06:31:00;;;;;;;15.05;6.55;;;;;;;1.18;55.22;99027.34;5075856;28;20068;-94
2022/03/08 06:33:26;;;;;;;17.65;6.85;;;;;;;1.31;55.51;99024.03;5077116;28;20040;-94
2022/03/08 06:35:52;;;;;;;14.55;7.20;;;;;;;1.37;56.06;99013.63;5081260;28;20559;-95
2022/03/08 06:38:20;;;;;;;11.73;6.72;;;;;;;1.43;55.13;99026.81;5080818;28;20045;-94
2022/03/08 06:40:45;;;;;;;13.02;6.30;;;;;;;1.42;54.43;99032.91;5077503;28;20127;-94
2022/03/08 06:43:11;;;;;;;12.95;6.38;;;;;;;1.65;55.60;99042.84;5077329;28;20064;-95
2022/03/08 06:45:37;;;;;;;11.60;6.50;;;;;;;1.85;54.97;99050.94;5079133;28;20108;-94
2022/03/08 06:48:04;;;;;;;13.40;6.95;;;;;;;1.93;55.07;99038.81;5076949;28;20040;-94
2022/03/08 06:50:30;;;;;;;13.50;7.45;;;;;;;2.01;54.80;99023.16;5078691;28;20134;-94
2022/03/08 06:52:56;;;;;;;11.85;6.93;;;;;;;2.13;53.63;99022.44;5077783;28;20044;-95
2022/03/08 06:55:23;;;;;;;13.48;7.63;;;;;;;2.18;53.49;99032.09;5081051;28;20041;-93
2022/03/08 06:57:49;;;;;;;17.20;7.50;;;;;;;2.34;52.72;99021.75;5079764;28;20037;-94
2022/03/08 07:00:16;;;;;;;14.23;6.95;;;;;;;2.52;52.96;99045.56;5076304;28;20040;-95
2022/03/08 07:02:42;;;;;;;14.02;6.63;;;;;;;2.56;52.66;99028.97;5076292;28;20045;-95
2022/03/08 07:05:09;;;;;;;12.30;6.78;;;;;;;2.59;52.88;99036.88;5075842;28;20097;-93
2022/03/08 07:07:35;;;;;;;15.73;7.05;;;;;;;2.70;52.74;99042.22;5077923;28;20048;-94
2022/03/08 07:10:01;;;;;;;13.95;6.68;;;;;;;2.93;51.26;99059.91;5076572;28;20136;-94
2022/03/08 07:12:28;;;;;;;12.25;6.95;;;;;;;2.86;51.67;99053.72;5077294;28;20136;-93
2022/03/08 07:14:54;;;;;;;23.75;8.57;;;;;;;2.78;52.03;99058.94;5077442;28;20520;-94
2022/03/08 07:17:20;;;;;;;15.48;7.60;;;;;;;2.81;51.70;99051.06;5076236;28;20041;-94
2022/03/08 07:19:46;;;;;;;20.50;7.45;;;;;;;2.99;51.88;99052.97;5076264;28;20465;-93
2022/03/08 07:22:12;;;;;;;14.68;7.22;;;;;;;3.28;51.56;99065.44;5076962;28;20055;-93
2022/03/08 07:24:38;;;;;;;16.52;8.18;;;;;;;3.35;51.17;99054.09;5076628;28;20041;-94
2022/03/08 07:27:08;;;;;;;15.23;7.07;;;;;;;3.29;50.78;99069.81;5075234;28;20051;-92
2022/03/08 07:29:35;;;;;;;15.52;7.57;;;;;;;3.04;52.42;99060.91;5078089;28;20116;-94
2022/03/08 07:32:01;;;;;;;14.90;7.95;;;;;;;3.00;51.79;99041.59;5081542;28;20437;-95
2022/03/08 07:34:27;;;;;;;14.70;8.18;;;;;;;3.05;50.97;99045.13;5081363;28;20090;-93
2022/03/08 07:36:53;;;;;;;16.15;7.70;;;;;;;2.87;51.52;99029.22;5081325;28;20055;-94
2022/03/08 07:39:19;;;;;;;16.60;8.93;;;;;;;3.01;50.38;99051.22;5081549;28;20037;-92
2022/03/08 07:41:44;;;;;;;12.30;6.65;;;;;;;2.87;50.64;99037.97;5082595;28;20440;-94
2022/03/08 07:44:10;;;;;;;11.50;6.53;;;;;;;2.86;51.43;99044.13;5081514;28;20040;-94
2022/03/08 07:46:39;;;;;;;16.67;7.60;;;;;;;2.90;50.28;99055.50;5081006;28;20044;-93
2022/03/08 07:49:05;;;;;;;12.93;6.82;;;;;;;2.85;49.79;99050.22;5080814;28;20136;-94
2022/03/08 07:51:31;;;;;;;12.35;7.05;;;;;;;2.99;50.06;99071.38;5080739;28;20072;-95
2022/03/08 07:53:59;;;;;;;16.75;7.53;;;;;;;2.88;50.67;99044.09;5080591;28;20040;-94
2022/03/08 07:56:25;;;;;;;18.77;8.73;;;;;;;3.02;49.83;99042.47;5083248;28;20044;-94
2022/03/08 07:58:52;;;;;;;25.80;13.52;;;;;;;3.06;49.38;99035.50;5083232;28;20028;-94
2022/03/08 08:01:18;;;;;;;20.00;11.77;;;;;;;3.18;48.31;99039.97;5083022;28;20507;-92
2022/03/08 08:03:45;;;;;;;14.13;7.47;;;;;;;3.04;48.90;99034.63;5080374;28;20049;-93
2022/03/08 08:06:11;;;;;;;12.70;7.60;;;;;;;3.40;49.26;99057.63;5080490;28;20040;-94
2022/03/08 08:08:37;;;;;;;14.43;6.93;;;;;;;3.71;47.60;99049.94;5079006;28;20056;-94
2022/03/08 08:11:03;;;;;;;14.02;6.78;;;;;;;3.69;46.91;99025.38;5081107;28;21319;-94
2022/03/08 08:13:29;;;;;;;14.55;7.03;;;;;;;3.53;47.03;99024.38;5077407;28;20045;-95
2022/03/08 08:15:55;;;;;;;15.00;8.00;;;;;;;3.82;47.40;99034.19;5078475;28;20045;-92
2022/03/08 08:18:21;;;;;;;13.48;6.93;;;;;;;4.33;46.69;99051.88;5080474;28;20051;-93
2022/03/08 08:20:48;;;;;;;17.25;9.60;;;;;;;4.36;46.26;99052.78;5079551;28;20049;-94
2022/03/08 08:23:14;;;;;;;12.73;7.30;;;;;;;4.28;46.09;99043.09;5081339;28;20072;-93
2022/03/08 08:25:40;;;;;;;10.05;6.00;;;;;;;4.44;45.75;99029.97;5078660;28;20040;-92
2022/03/08 08:28:06;;;;;;;15.15;7.85;;;;;;;4.51;45.90;99011.56;5078891;28;20063;-93
2022/03/08 08:30:33;;;;;;;12.05;7.35;;;;;;;4.16;45.22;99023.78;5079487;28;20036;-92
2022/03/08 08:33:00;;;;;;;13.63;6.20;;;;;;;4.02;47.19;99024.59;5079100;28;20046;-94
2022/03/08 08:35:26;;;;;;;13.60;7.10;;;;;;;3.85;45.90;99016.66;5078372;28;20055;-94
2022/03/08 08:37:53;;;;;;;22.38;13.20;;;;;;;4.51;47.43;99037.91;5077534;28;20040;-93
2022/03/08 08:40:19;;;;;;;11.85;5.97;;;;;;;4.42;45.24;99014.16;5077788;28;20071;-94
2022/03/08 08:42:44;;;;;;;13.48;6.28;;;;;;;4.05;46.08;99026.38;5078405;28;20048;-94
2022/03/08 08:45:11;;;;;;;15.43;11.20;;;;;;;3.96;46.49;99042.13;5079535;28;20040;-94
2022/03/08 08:47:37;;;;;;;11.35;6.72;;;;;;;3.63;47.51;99026.22;5078197;28;20045;-94
2022/03/08 08:50:03;;;;;;;12.80;7.20;;;;;;;3.45;47.92;99040.16;5079313;28;20040;-94
2022/03/08 08:52:29;;;;;;;12.73;6.85;;;;;;;3.84;46.80;99058.75;5078907;28;20064;-93
2022/03/08 08:54:57;;;;;;;10.68;5.93;;;;;;;4.10;46.15;99033.41;5077711;28;20044;-95
2022/03/08 08:57:22;;;;;;;10.32;5.30;;;;;;;4.51;45.14;99032.63;5078006;28;20486;-92
2022/03/08 08:59:49;;;;;;;11.57;6.07;;;;;;;4.37;44.76;99037.00;5078653;28;20051;-92
2022/03/08 09:02:15;;;;;;;12.77;7.53;;;;;;;4.18;46.79;99033.41;5080302;28;20094;-93
2022/03/08 09:04:41;;;;;;;9.38;6.30;;;;;;;4.09;45.60;99060.59;5079805;28;20040;-91
2022/03/08 09:07:07;;;;;;;13.10;7.30;;;;;;;3.86;46.23;99057.88;5079620;28;20060;-93
2022/03/08 09:09:33;;;;;;;11.73;5.78;;;;;;;4.15;45.90;99072.91;5078969;28;20510;-94
2022/03/08 09:12:00;;;;;;;10.90;5.35;;;;;;;3.96;45.67;99053.53;5079584;28;20040;-92
2022/03/08 09:14:26;;;;;;;9.77;6.22;;;;;;;3.96;45.68;99081.59;5079261;28;20072;-93
2022/03/08 09:16:52;;;;;;;10.77;5.10;;;;;;;4.20;44.72;99075.56;5077480;28;20519;-93
2022/03/08 09:19:18;;;;;;;11.10;7.22;;;;;;;4.63;44.08;99071.25;5078451;28;20040;-91
2022/03/08 09:21:44;;;;;;;10.68;5.22;;;;;;;5.00;42.83;99037.03;5077628;28;20044;-94
2022/03/08 09:24:09;;;;;;;10.18;5.15;;;;;;;5.24;42.22;99030.00;5077645;28;20053;-93
2022/03/08 09:26:35;;;;;;;11.48;5.50;;;;;;;5.34;42.17;99060.75;5077061;28;20036;-93
2022/03/08 09:29:03;;;;;;;17.17;5.72;;;;;;;5.11;42.04;99035.25;5078030;28;20105;-93
2022/03/08 09:31:29;;;;;;;7.88;4.60;;;;;;;5.25;41.36;99042.31;5076286;28;20044;-94
2022/03/08 09:33:54;;;;;;;11.52;5.75;;;;;;;4.86;42.92;99052.00;5077451;28;20045;-92
2022/03/08 09:36:20;;;;;;;11.75;5.43;;;;;;;4.63;43.26;99054.59;5077402;28;20040;-94
2022/03/08 09:38:46;;;;;;;12.25;5.88;;;;;;;4.59;43.84;99043.16;5077919;28;20041;-94
2022/03/08 09:41:13;;;;;;;9.57;5.60;;;;;;;4.88;43.00;99044.94;5077111;28;20041;-93
2022/03/08 09:43:39;;;;;;;12.30;6.30;;;;;;;4.92;42.76;99042.31;5077001;28;20389;-92
2022/03/08 09:46:07;;;;;;;11.35;5.55;;;;;;;5.21;42.39;99051.09;5076646;28;20041;-93
2022/03/08 09:48:33;;;;;;;10.77;5.88;;;;;;;4.90;43.30;99061.63;5077655;28;20479;-94
2022/03/08 09:50:59;;;;;;;12.90;5.80;;;;;;;4.86;43.33;99049.34;5076402;28;20101;-92
2022/03/08 09:53:26;;;;;;;10.68;6.40;;;;;;;5.23;43.11;99044.06;5077936;28;20157;-94
2022/03/08 09:55:56;;;;;;;10.60;5.78;;;;;;;5.67;43.23;99062.44;5077684;28;20506;-93
2022/03/08 09:58:22;;;;;;;10.98;6.05;;;;;;;5.64;43.15;99070.34;5077305;28;20032;-93
2022/03/08 10:00:48;;;;;;;11.43;5.95;;;;;;;5.68;42.61;99055.38;5077144;28;20515;-95
2022/03/08 10:03:15;;;;;;;9.25;5.30;;;;;;;5.53;42.61;99040.47;5078173;28;20127;-94
2022/03/08 10:05:44;;;;;;;11.93;5.90;;;;;;;5.77;43.61;99063.28;5078082;28;20577;-92
2022/03/08 10:08:13;;;;;;;13.50;6.40;;;;;;;5.70;43.68;99065.06;5078230;28;20052;-94
2022/03/08 10:10:49;;;;;;;12.20;6.13;;;;;;;5.72;44.00;99046.56;5079008;28;20045;-94
2022/03/08 10:13:15;;;;;;;11.00;6.22;;;;;;;5.62;44.03;99069.47;5058151;28;20044;-94
2022/03/08 10:15:41;;;;;;;13.82;6.82;;;;;;;5.52;43.58;99017.63;5071885;28;20041;-94
2022/03/08 10:18:08;;;;;;;11.50;5.68;;;;;;;5.75;43.61;99050.09;5078951;28;20068;-94
2022/03/08 10:20:35;;;;;;;10.32;5.97;;;;;;;5.40;41.47;99041.38;5077709;28;20078;-93
2022/03/08 10:23:08;;;;;;;14.10;6.30;;;;;;;5.49;42.45;99060.72;5078022;28;20040;-94
2022/03/08 10:25:34;;;;;;;8.93;5.13;;;;;;;5.86;40.93;99039.50;5077369;28;20136;-89
2022/03/08 10:28:03;;;;;;;9.93;5.97;;;;;;;5.56;41.90;99065.09;5077940;28;20064;-91
2022/03/08 10:30:46;;;;;;;11.55;6.32;;;;;;;5.54;41.62;99018.50;5078361;28;20068;-94
2022/03/08 10:33:19;;;;;;;9.30;5.85;;;;;;;6.48;39.79;98999.59;5077815;28;20087;-93
2022/03/08 10:35:47;;;;;;;8.75;5.82;;;;;;;6.49;40.48;99041.00;5079092;28;20045;-91
2022/03/08 10:38:13;;;;;;;11.33;6.03;;;;;;;6.10;40.55;99027.13;5075742;28;20032;-92
2022/03/08 10:40:41;;;;;;;9.63;5.30;;;;;;;6.29;40.17;99019.94;5074869;28;20285;-93
2022/03/08 10:43:10;;;;;;;10.25;5.93;;;;;;;5.92;41.45;99015.72;5076171;28;20052;-93
2022/03/08 10:45:39;;;;;;;14.50;7.37;;;;;;;5.54;41.33;99018.50;5078500;28;20040;-94
2022/03/08 10:48:06;;;;;;;13.00;5.95;;;;;;;5.63;41.22;99014.94;5078556;28;20041;-93
2022/03/08 10:50:35;;;;;;;11.30;5.60;;;;;;;5.62;41.13;99010.56;5075893;28;20074;-93
2022/03/08 10:53:04;;;;;;;11.38;6.10;;;;;;;5.62;41.77;99023.75;5079800;28;20107;-93
2022/03/08 10:55:31;;;;;;;;;;;;;;;5.56;42.60;99037.84;5078500;28;20036;-93
2022/03/08 10:57:58;;;;;;;9.95;5.75;;;;;;;5.65;42.13;99015.81;5082119;28;20015;-94
2022/03/08 11:00:26;;;;;;;12.88;8.07;;;;;;;5.64;42.34;99019.34;5081603;28;20048;-95
2022/03/08 11:02:53;;;;;;;9.77;6.07;;;;;;;5.58;41.58;99014.09;5080252;28;20071;-93
2022/03/08 11:05:21;;;;;;;13.80;6.75;;;;;;;5.84;41.49;99043.03;5078511;28;20068;-93
2022/03/08 11:07:48;;;;;;;11.45;6.45;;;;;;;5.25;41.74;99032.63;5077597;28;20311;-94
2022/03/08 11:10:21;;;;;;;12.93;7.15;;;;;;;5.51;42.82;99051.03;5082653;28;20040;-94
2022/03/08 11:12:47;;;;;;;10.60;6.68;;;;;;;5.61;42.44;99022.00;5083624;28;20051;-94
2022/03/08 11:15:15;;;;;;;13.93;6.03;;;;;;;5.69;41.90;99023.72;5078281;28;20040;-93
2022/03/08 11:17:44;;;;;;;11.05;6.07;;;;;;;5.64;42.53;99037.81;5085511;28;20087;-94
2022/03/08 11:20:11;;;;;;;13.02;6.60;;;;;;;5.41;43.37;99015.00;5082091;28;20047;-92
2022/03/08 11:22:38;;;;;;;10.88;5.97;;;;;;;5.67;43.47;99036.03;5077510;28;20045;-92
2022/03/08 11:25:05;;;;;;;13.52;7.30;;;;;;;5.27;43.23;99024.69;5079384;28;20045;-94
2022/03/08 11:27:35;;;;;;;11.77;6.47;;;;;;;5.44;44.08;99022.91;5080398;28;20055;-95